sensor_id;sensor_type;location;lat;lon;timestamp;temperature;humidity
6865;DHT22;3471;49.678;8.388;2023-04-01T00:00:55;11.50;99.90
6865;DHT22;3471;49.678;8.388;2023-04-01T00:03:22;11.60;99.90
6865;DHT22;3471;49.678;8.388;2023-04-01T00:05:48;11.40;99.90
6865;DHT22;3471;49.678;8.388;2023-04-01T00:08:15;11.40;99.90
6865;DHT22;3471;49.678;8.388;2023-04-01T00:10:41;11.40;99.90
6865;DHT22;3471;49.678;8.388;2023-04-01T00:13:06;11.40;99.90
6865;DHT22;3471;49.678;8.388;2023-04-01T00:15:32;11.40;99.90
6865;DHT22;3471;49.678;8.388;2023-04-01T00:17:58;11.30;99.90
6865;DHT22;3471;49.678;8.388;2023-04-01T00:20:24;11.30;99.90
6865;DHT22;3471;49.678;8.388;2023-04-01T00:22:50;11.30;99.90
6865;DHT22;3471;49.678;8.388;2023-04-01T00:25:16;11.30;99.90
6865;DHT22;3471;49.678;8.388;2023-04-01T00:27:42;11.30;99.90
6865;DHT22;3471;49.678;8.388;2023-04-01T00:30:08;11.30;99.90
6865;DHT22;3471;49.678;8.388;2023-04-01T00:32:34;11.30;99.90
6865;DHT22;3471;49.678;8.388;2023-04-01T00:35:01;11.20;99.90
6865;DHT22;3471;49.678;8.388;2023-04-01T00:37:27;11.20;99.90
6865;DHT22;3471;49.678;8.388;2023-04-01T00:39:53;11.20;99.90
6865;DHT22;3471;49.678;8.388;2023-04-01T00:42:19;11.20;99.90
6865;DHT22;3471;49.678;8.388;2023-04-01T00:44:54;11.20;99.90
6865;DHT22;3471;49.678;8.388;2023-04-01T00:47:21;11.20;99.90
6865;DHT22;3471;49.678;8.388;2023-04-01T00:49:50;11.20;99.90
6865;DHT22;3471;49.678;8.388;2023-04-01T00:52:21;11.20;99.90
6865;DHT22;3471;49.678;8.388;2023-04-01T00:54:51;11.20;99.90
6865;DHT22;3471;49.678;8.388;2023-04-01T00:57:19;11.20;99.90
6865;DHT22;3471;49.678;8.388;2023-04-01T00:59:48;11.30;99.90
6865;DHT22;3471;49.678;8.388;2023-04-01T01:02:15;11.20;99.90
6865;DHT22;3471;49.678;8.388;2023-04-01T01:04:41;11.20;99.90
6865;DHT22;3471;49.678;8.388;2023-04-01T01:18:06;11.20;99.90
6865;DHT22;3471;49.678;8.388;2023-04-01T01:37:34;11.20;99.90
6865;DHT22;3471;49.678;8.388;2023-04-01T01:40:03;11.10;99.90
6865;DHT22;3471;49.678;8.388;2023-04-01T01:42:31;11.10;99.90
6865;DHT22;3471;49.678;8.388;2023-04-01T01:44:59;11.10;99.90
6865;DHT22;3471;49.678;8.388;2023-04-01T01:47:25;11.10;99.90
6865;DHT22;3471;49.678;8.388;2023-04-01T01:49:53;11.10;99.90
6865;DHT22;3471;49.678;8.388;2023-04-01T01:52:19;11.10;99.90
6865;DHT22;3471;49.678;8.388;2023-04-01T01:54:53;11.10;99.90
6865;DHT22;3471;49.678;8.388;2023-04-01T01:57:24;11.10;99.90
6865;DHT22;3471;49.678;8.388;2023-04-01T01:59:54;11.10;99.90
6865;DHT22;3471;49.678;8.388;2023-04-01T02:02:22;11.10;99.90
6865;DHT22;3471;49.678;8.388;2023-04-01T02:04:49;11.00;99.90
6865;DHT22;3471;49.678;8.388;2023-04-01T02:07:26;11.00;99.90
6865;DHT22;3471;49.678;8.388;2023-04-01T02:09:53;11.10;99.90
6865;DHT22;3471;49.678;8.388;2023-04-01T02:12:21;11.00;99.90
6865;DHT22;3471;49.678;8.388;2023-04-01T02:17:23;11.00;99.90
6865;DHT22;3471;49.678;8.388;2023-04-01T02:19:56;11.00;99.90
6865;DHT22;3471;49.678;8.388;2023-04-01T02:22:31;11.00;99.90
6865;DHT22;3471;49.678;8.388;2023-04-01T02:25:05;11.00;99.90
6865;DHT22;3471;49.678;8.388;2023-04-01T02:27:31;11.00;99.90
6865;DHT22;3471;49.678;8.388;2023-04-01T02:29:57;11.00;99.90
6865;DHT22;3471;49.678;8.388;2023-04-01T02:32:25;11.10;99.90
6865;DHT22;3471;49.678;8.388;2023-04-01T02:34:52;11.10;99.90
6865;DHT22;3471;49.678;8.388;2023-04-01T02:37:17;11.10;99.90
6865;DHT22;3471;49.678;8.388;2023-04-01T02:39:43;11.10;99.90
6865;DHT22;3471;49.678;8.388;2023-04-01T02:42:09;11.10;99.90
6865;DHT22;3471;49.678;8.388;2023-04-01T02:44:35;11.10;99.90
6865;DHT22;3471;49.678;8.388;2023-04-01T02:47:01;11.10;99.90
6865;DHT22;3471;49.678;8.388;2023-04-01T02:49:27;11.00;99.90
6865;DHT22;3471;49.678;8.388;2023-04-01T02:51:52;11.00;99.90
6865;DHT22;3471;49.678;8.388;2023-04-01T02:54:19;11.00;99.90
6865;DHT22;3471;49.678;8.388;2023-04-01T02:56:44;11.00;99.90
6865;DHT22;3471;49.678;8.388;2023-04-01T02:59:11;11.00;99.90
6865;DHT22;3471;49.678;8.388;2023-04-01T03:01:37;11.00;99.90
6865;DHT22;3471;49.678;8.388;2023-04-01T03:04:04;10.90;99.90
6865;DHT22;3471;49.678;8.388;2023-04-01T03:06:29;10.90;99.90
6865;DHT22;3471;49.678;8.388;2023-04-01T03:08:55;10.90;99.90
6865;DHT22;3471;49.678;8.388;2023-04-01T03:11:21;10.90;99.90
6865;DHT22;3471;49.678;8.388;2023-04-01T03:13:47;10.90;99.90
6865;DHT22;3471;49.678;8.388;2023-04-01T03:16:14;10.90;99.90
6865;DHT22;3471;49.678;8.388;2023-04-01T03:18:39;10.80;99.90
6865;DHT22;3471;49.678;8.388;2023-04-01T03:21:17;10.80;99.90
6865;DHT22;3471;49.678;8.388;2023-04-01T03:23:42;10.80;99.90
6865;DHT22;3471;49.678;8.388;2023-04-01T03:26:08;10.80;99.90
6865;DHT22;3471;49.678;8.388;2023-04-01T03:28:34;10.80;99.90
6865;DHT22;3471;49.678;8.388;2023-04-01T03:30:59;10.80;99.90
6865;DHT22;3471;49.678;8.388;2023-04-01T03:33:25;10.80;99.90
6865;DHT22;3471;49.678;8.388;2023-04-01T03:35:50;10.80;99.90
6865;DHT22;3471;49.678;8.388;2023-04-01T03:38:17;10.90;99.90
6865;DHT22;3471;49.678;8.388;2023-04-01T03:40:43;10.80;99.90
6865;DHT22;3471;49.678;8.388;2023-04-01T03:43:09;10.90;99.90
6865;DHT22;3471;49.678;8.388;2023-04-01T03:45:35;10.80;99.90
6865;DHT22;3471;49.678;8.388;2023-04-01T03:48:01;10.80;99.90
6865;DHT22;3471;49.678;8.388;2023-04-01T03:50:27;10.80;99.90
6865;DHT22;3471;49.678;8.388;2023-04-01T03:52:52;10.90;99.90
6865;DHT22;3471;49.678;8.388;2023-04-01T03:55:18;10.90;99.90
6865;DHT22;3471;49.678;8.388;2023-04-01T03:57:43;10.80;99.90
6865;DHT22;3471;49.678;8.388;2023-04-01T04:00:10;10.90;99.90
6865;DHT22;3471;49.678;8.388;2023-04-01T04:02:36;10.80;99.90
6865;DHT22;3471;49.678;8.388;2023-04-01T04:05:01;10.90;99.90
6865;DHT22;3471;49.678;8.388;2023-04-01T04:07:27;10.90;99.90
6865;DHT22;3471;49.678;8.388;2023-04-01T04:09:53;10.90;99.90
6865;DHT22;3471;49.678;8.388;2023-04-01T04:12:18;10.90;99.90
6865;DHT22;3471;49.678;8.388;2023-04-01T04:14:44;10.90;99.90
6865;DHT22;3471;49.678;8.388;2023-04-01T04:17:10;10.90;99.90
6865;DHT22;3471;49.678;8.388;2023-04-01T04:19:41;10.90;99.90
6865;DHT22;3471;49.678;8.388;2023-04-01T04:22:07;11.00;99.90
6865;DHT22;3471;49.678;8.388;2023-04-01T04:24:34;11.00;99.90
6865;DHT22;3471;49.678;8.388;2023-04-01T04:27:00;11.00;99.90
6865;DHT22;3471;49.678;8.388;2023-04-01T04:29:25;11.10;99.90
6865;DHT22;3471;49.678;8.388;2023-04-01T04:31:51;11.10;99.90
6865;DHT22;3471;49.678;8.388;2023-04-01T04:34:17;11.10;99.90
6865;DHT22;3471;49.678;8.388;2023-04-01T04:36:44;11.10;99.90
6865;DHT22;3471;49.678;8.388;2023-04-01T04:39:10;11.00;99.90
6865;DHT22;3471;49.678;8.388;2023-04-01T04:41:37;11.00;99.90
6865;DHT22;3471;49.678;8.388;2023-04-01T04:44:03;11.00;99.90
6865;DHT22;3471;49.678;8.388;2023-04-01T04:46:29;11.00;99.90
6865;DHT22;3471;49.678;8.388;2023-04-01T04:48:54;11.00;99.90
6865;DHT22;3471;49.678;8.388;2023-04-01T04:51:21;11.10;99.90
6865;DHT22;3471;49.678;8.388;2023-04-01T04:53:47;11.10;99.90
6865;DHT22;3471;49.678;8.388;2023-04-01T04:56:12;11.00;99.90
6865;DHT22;3471;49.678;8.388;2023-04-01T04:58:39;11.00;99.90
6865;DHT22;3471;49.678;8.388;2023-04-01T05:01:09;11.00;99.90
6865;DHT22;3471;49.678;8.388;2023-04-01T05:03:36;11.00;99.90
6865;DHT22;3471;49.678;8.388;2023-04-01T05:06:01;11.00;99.90
6865;DHT22;3471;49.678;8.388;2023-04-01T05:08:27;11.00;99.90
6865;DHT22;3471;49.678;8.388;2023-04-01T05:10:53;11.00;99.90
6865;DHT22;3471;49.678;8.388;2023-04-01T05:13:18;11.00;99.90
6865;DHT22;3471;49.678;8.388;2023-04-01T05:15:44;11.00;99.90
6865;DHT22;3471;49.678;8.388;2023-04-01T05:18:09;11.00;99.90
6865;DHT22;3471;49.678;8.388;2023-04-01T05:20:35;10.90;99.90
6865;DHT22;3471;49.678;8.388;2023-04-01T05:23:00;10.90;99.90
6865;DHT22;3471;49.678;8.388;2023-04-01T05:25:26;10.90;99.90
6865;DHT22;3471;49.678;8.388;2023-04-01T05:27:52;11.00;99.90
6865;DHT22;3471;49.678;8.388;2023-04-01T05:30:18;10.90;99.90
6865;DHT22;3471;49.678;8.388;2023-04-01T05:32:44;10.90;99.90
6865;DHT22;3471;49.678;8.388;2023-04-01T05:35:10;10.90;99.90
6865;DHT22;3471;49.678;8.388;2023-04-01T05:37:36;10.90;99.90
6865;DHT22;3471;49.678;8.388;2023-04-01T05:40:03;10.90;99.90
6865;DHT22;3471;49.678;8.388;2023-04-01T05:42:29;10.90;99.90
6865;DHT22;3471;49.678;8.388;2023-04-01T05:44:55;10.90;99.90
6865;DHT22;3471;49.678;8.388;2023-04-01T05:47:21;10.90;99.90
6865;DHT22;3471;49.678;8.388;2023-04-01T05:49:47;10.90;99.90
6865;DHT22;3471;49.678;8.388;2023-04-01T05:52:13;10.90;99.90
6865;DHT22;3471;49.678;8.388;2023-04-01T05:54:38;11.00;99.90
6865;DHT22;3471;49.678;8.388;2023-04-01T05:57:04;10.90;99.90
6865;DHT22;3471;49.678;8.388;2023-04-01T05:59:30;11.00;99.90
6865;DHT22;3471;49.678;8.388;2023-04-01T06:01:56;11.00;99.90
6865;DHT22;3471;49.678;8.388;2023-04-01T06:04:23;11.00;99.90
6865;DHT22;3471;49.678;8.388;2023-04-01T06:06:49;10.90;99.90
6865;DHT22;3471;49.678;8.388;2023-04-01T06:09:25;10.90;99.90
6865;DHT22;3471;49.678;8.388;2023-04-01T06:12:24;10.90;99.90
6865;DHT22;3471;49.678;8.388;2023-04-01T06:15:24;10.90;99.90
6865;DHT22;3471;49.678;8.388;2023-04-01T06:18:12;11.00;99.90
6865;DHT22;3471;49.678;8.388;2023-04-01T06:20:57;11.00;99.90
6865;DHT22;3471;49.678;8.388;2023-04-01T06:25:59;11.00;99.90
6865;DHT22;3471;49.678;8.388;2023-04-01T06:28:48;11.00;99.90
6865;DHT22;3471;49.678;8.388;2023-04-01T06:39:51;11.00;99.90
6865;DHT22;3471;49.678;8.388;2023-04-01T06:42:29;11.00;99.90
6865;DHT22;3471;49.678;8.388;2023-04-01T06:53:49;11.00;99.90
6865;DHT22;3471;49.678;8.388;2023-04-01T06:56:20;11.00;99.90
6865;DHT22;3471;49.678;8.388;2023-04-01T06:58:56;11.10;99.90
6865;DHT22;3471;49.678;8.388;2023-04-01T07:01:34;11.10;99.90
6865;DHT22;3471;49.678;8.388;2023-04-01T07:04:11;11.20;99.90
6865;DHT22;3471;49.678;8.388;2023-04-01T07:09:22;11.20;99.90
6865;DHT22;3471;49.678;8.388;2023-04-01T07:11:50;11.20;99.90
6865;DHT22;3471;49.678;8.388;2023-04-01T07:14:36;11.20;99.90
6865;DHT22;3471;49.678;8.388;2023-04-01T07:17:14;11.30;99.90
6865;DHT22;3471;49.678;8.388;2023-04-01T07:19:47;11.30;99.90
6865;DHT22;3471;49.678;8.388;2023-04-01T07:22:17;11.20;99.90
6865;DHT22;3471;49.678;8.388;2023-04-01T07:24:47;11.40;99.90
6865;DHT22;3471;49.678;8.388;2023-04-01T07:27:14;11.40;99.90
6865;DHT22;3471;49.678;8.388;2023-04-01T07:29:40;11.50;99.90
6865;DHT22;3471;49.678;8.388;2023-04-01T07:32:21;11.50;99.90
6865;DHT22;3471;49.678;8.388;2023-04-01T07:35:24;11.50;99.90
6865;DHT22;3471;49.678;8.388;2023-04-01T07:38:10;11.70;99.90
6865;DHT22;3471;49.678;8.388;2023-04-01T07:41:05;11.70;99.90
6865;DHT22;3471;49.678;8.388;2023-04-01T07:43:54;11.70;99.90
6865;DHT22;3471;49.678;8.388;2023-04-01T07:51:58;11.80;99.90
6865;DHT22;3471;49.678;8.388;2023-04-01T08:02:29;11.90;99.90
6865;DHT22;3471;49.678;8.388;2023-04-01T08:05:28;11.90;99.90
6865;DHT22;3471;49.678;8.388;2023-04-01T08:13:38;11.90;99.90
6865;DHT22;3471;49.678;8.388;2023-04-01T08:22:11;11.80;99.90
6865;DHT22;3471;49.678;8.388;2023-04-01T08:24:44;11.70;99.90
6865;DHT22;3471;49.678;8.388;2023-04-01T08:27:23;11.70;99.90
6865;DHT22;3471;49.678;8.388;2023-04-01T08:29:58;11.70;99.90
6865;DHT22;3471;49.678;8.388;2023-04-01T08:32:31;11.70;99.90
6865;DHT22;3471;49.678;8.388;2023-04-01T08:37:43;11.80;99.90
6865;DHT22;3471;49.678;8.388;2023-04-01T08:46:04;11.90;99.90
6865;DHT22;3471;49.678;8.388;2023-04-01T08:53:44;12.10;99.90
6865;DHT22;3471;49.678;8.388;2023-04-01T08:56:40;12.20;99.90
6865;DHT22;3471;49.678;8.388;2023-04-01T09:08:14;12.30;99.90
6865;DHT22;3471;49.678;8.388;2023-04-01T09:22:17;12.40;99.90
6865;DHT22;3471;49.678;8.388;2023-04-01T09:27:28;12.40;99.90
6865;DHT22;3471;49.678;8.388;2023-04-01T09:30:19;12.40;99.90
6865;DHT22;3471;49.678;8.388;2023-04-01T09:35:46;12.40;99.90
6865;DHT22;3471;49.678;8.388;2023-04-01T09:38:22;12.40;99.90
6865;DHT22;3471;49.678;8.388;2023-04-01T09:40:58;12.30;99.90
6865;DHT22;3471;49.678;8.388;2023-04-01T09:57:53;12.40;99.90
6865;DHT22;3471;49.678;8.388;2023-04-01T10:06:51;12.50;99.90
6865;DHT22;3471;49.678;8.388;2023-04-01T10:15:34;12.80;99.90
6865;DHT22;3471;49.678;8.388;2023-04-01T10:24:31;12.80;99.90
6865;DHT22;3471;49.678;8.388;2023-04-01T10:38:20;12.90;99.90
6865;DHT22;3471;49.678;8.388;2023-04-01T10:58:35;13.00;99.90
6865;DHT22;3471;49.678;8.388;2023-04-01T11:24:21;12.90;99.90
6865;DHT22;3471;49.678;8.388;2023-04-01T11:32:39;13.00;99.90
6865;DHT22;3471;49.678;8.388;2023-04-01T11:41:19;13.00;99.90
6865;DHT22;3471;49.678;8.388;2023-04-01T11:53:12;13.20;99.90
6865;DHT22;3471;49.678;8.388;2023-04-01T11:56:02;13.20;99.90
6865;DHT22;3471;49.678;8.388;2023-04-01T11:58:31;13.10;99.90
6865;DHT22;3471;49.678;8.388;2023-04-01T12:01:27;13.10;99.90
6865;DHT22;3471;49.678;8.388;2023-04-01T12:12:18;13.30;99.90
6865;DHT22;3471;49.678;8.388;2023-04-01T12:15:05;13.30;99.90
6865;DHT22;3471;49.678;8.388;2023-04-01T12:36:46;13.40;99.90
6865;DHT22;3471;49.678;8.388;2023-04-01T12:45:34;13.40;99.90
6865;DHT22;3471;49.678;8.388;2023-04-01T13:01:52;13.20;99.90
6865;DHT22;3471;49.678;8.388;2023-04-01T13:04:43;13.20;99.90
6865;DHT22;3471;49.678;8.388;2023-04-01T13:23:55;13.00;99.90
6865;DHT22;3471;49.678;8.388;2023-04-01T13:26:41;13.10;99.90
6865;DHT22;3471;49.678;8.388;2023-04-01T13:32:20;13.00;99.90
6865;DHT22;3471;49.678;8.388;2023-04-01T13:40:59;13.00;99.90
6865;DHT22;3471;49.678;8.388;2023-04-01T13:43:43;13.00;99.90
6865;DHT22;3471;49.678;8.388;2023-04-01T13:46:27;13.00;99.90
6865;DHT22;3471;49.678;8.388;2023-04-01T14:06:02;13.10;99.90
6865;DHT22;3471;49.678;8.388;2023-04-01T14:28:16;12.90;99.90
6865;DHT22;3471;49.678;8.388;2023-04-01T14:30:39;12.90;99.90
6865;DHT22;3471;49.678;8.388;2023-04-01T14:33:37;12.80;99.90
6865;DHT22;3471;49.678;8.388;2023-04-01T14:36:45;12.90;99.90
6865;DHT22;3471;49.678;8.388;2023-04-01T14:42:46;12.70;99.90
6865;DHT22;3471;49.678;8.388;2023-04-01T14:45:36;12.70;99.90
6865;DHT22;3471;49.678;8.388;2023-04-01T14:50:51;12.60;99.90
6865;DHT22;3471;49.678;8.388;2023-04-01T14:53:35;12.60;99.90
6865;DHT22;3471;49.678;8.388;2023-04-01T14:56:05;12.60;99.90
6865;DHT22;3471;49.678;8.388;2023-04-01T14:58:44;12.50;99.90
6865;DHT22;3471;49.678;8.388;2023-04-01T15:01:38;12.60;99.90
6865;DHT22;3471;49.678;8.388;2023-04-01T15:04:43;12.60;99.90
6865;DHT22;3471;49.678;8.388;2023-04-01T15:18:44;13.10;99.90
6865;DHT22;3471;49.678;8.388;2023-04-01T15:30:36;13.20;99.90
6865;DHT22;3471;49.678;8.388;2023-04-01T15:47:34;12.90;99.90
6865;DHT22;3471;49.678;8.388;2023-04-01T16:09:53;12.80;99.90
6865;DHT22;3471;49.678;8.388;2023-04-01T16:21:01;12.90;99.90
6865;DHT22;3471;49.678;8.388;2023-04-01T16:23:49;12.80;99.90
6865;DHT22;3471;49.678;8.388;2023-04-01T16:26:31;12.90;99.90
6865;DHT22;3471;49.678;8.388;2023-04-01T16:29:19;12.90;99.90
6865;DHT22;3471;49.678;8.388;2023-04-01T16:32:00;12.80;99.90
6865;DHT22;3471;49.678;8.388;2023-04-01T16:37:40;12.80;99.90
6865;DHT22;3471;49.678;8.388;2023-04-01T16:40:20;12.90;99.90
6865;DHT22;3471;49.678;8.388;2023-04-01T16:51:48;12.90;99.90
6865;DHT22;3471;49.678;8.388;2023-04-01T16:59:44;12.70;99.90
6865;DHT22;3471;49.678;8.388;2023-04-01T17:02:14;12.70;99.90
6865;DHT22;3471;49.678;8.388;2023-04-01T17:07:48;12.80;99.90
6865;DHT22;3471;49.678;8.388;2023-04-01T17:43:13;12.00;99.90
6865;DHT22;3471;49.678;8.388;2023-04-01T17:45:55;12.00;99.90
6865;DHT22;3471;49.678;8.388;2023-04-01T18:08:47;11.90;99.90
6865;DHT22;3471;49.678;8.388;2023-04-01T18:11:25;11.90;99.90
6865;DHT22;3471;49.678;8.388;2023-04-01T18:22:21;11.90;99.90
6865;DHT22;3471;49.678;8.388;2023-04-01T18:27:43;11.90;99.90
6865;DHT22;3471;49.678;8.388;2023-04-01T18:30:26;11.90;99.90
6865;DHT22;3471;49.678;8.388;2023-04-01T18:40:51;11.90;99.90
6865;DHT22;3471;49.678;8.388;2023-04-01T18:43:30;11.80;99.90
6865;DHT22;3471;49.678;8.388;2023-04-01T18:49:20;11.80;99.90
6865;DHT22;3471;49.678;8.388;2023-04-01T18:57:19;11.90;99.90
6865;DHT22;3471;49.678;8.388;2023-04-01T18:59:57;11.90;99.90
6865;DHT22;3471;49.678;8.388;2023-04-01T19:02:45;11.90;99.90
6865;DHT22;3471;49.678;8.388;2023-04-01T19:05:25;11.90;99.90
6865;DHT22;3471;49.678;8.388;2023-04-01T19:07:55;11.90;99.90
6865;DHT22;3471;49.678;8.388;2023-04-01T19:10:37;11.90;99.90
6865;DHT22;3471;49.678;8.388;2023-04-01T19:21:42;11.90;99.90
6865;DHT22;3471;49.678;8.388;2023-04-01T19:27:34;11.90;99.90
6865;DHT22;3471;49.678;8.388;2023-04-01T19:43:35;11.70;99.90
6865;DHT22;3471;49.678;8.388;2023-04-01T19:58:09;11.50;99.90
6865;DHT22;3471;49.678;8.388;2023-04-01T20:00:43;11.60;99.90
6865;DHT22;3471;49.678;8.388;2023-04-01T20:03:29;11.60;99.90
6865;DHT22;3471;49.678;8.388;2023-04-01T20:14:53;11.70;99.90
6865;DHT22;3471;49.678;8.388;2023-04-01T20:20:01;11.70;99.90
6865;DHT22;3471;49.678;8.388;2023-04-01T20:36:41;11.80;99.90
6865;DHT22;3471;49.678;8.388;2023-04-01T20:45:22;11.80;99.90
6865;DHT22;3471;49.678;8.388;2023-04-01T20:48:19;11.80;99.90
6865;DHT22;3471;49.678;8.388;2023-04-01T20:56:22;11.70;99.90
6865;DHT22;3471;49.678;8.388;2023-04-01T21:01:44;11.70;99.90
6865;DHT22;3471;49.678;8.388;2023-04-01T21:04:37;11.70;99.90
6865;DHT22;3471;49.678;8.388;2023-04-01T21:07:39;11.60;99.90
6865;DHT22;3471;49.678;8.388;2023-04-01T21:10:34;11.60;99.90
6865;DHT22;3471;49.678;8.388;2023-04-01T21:13:28;11.60;99.90
6865;DHT22;3471;49.678;8.388;2023-04-01T21:16:11;11.50;99.90
6865;DHT22;3471;49.678;8.388;2023-04-01T21:46:42;11.60;99.90
6865;DHT22;3471;49.678;8.388;2023-04-01T22:05:26;11.80;99.90
6865;DHT22;3471;49.678;8.388;2023-04-01T22:08:16;11.80;99.90
6865;DHT22;3471;49.678;8.388;2023-04-01T22:13:33;11.90;99.90
6865;DHT22;3471;49.678;8.388;2023-04-01T22:19:05;11.90;99.90
6865;DHT22;3471;49.678;8.388;2023-04-01T22:21:45;11.90;99.90
6865;DHT22;3471;49.678;8.388;2023-04-01T22:24:40;11.90;99.90
6865;DHT22;3471;49.678;8.388;2023-04-01T22:27:30;11.90;99.90
6865;DHT22;3471;49.678;8.388;2023-04-01T22:30:10;11.90;99.90
6865;DHT22;3471;49.678;8.388;2023-04-01T22:39:36;11.90;99.90
6865;DHT22;3471;49.678;8.388;2023-04-01T22:43:55;11.90;99.90
6865;DHT22;3471;49.678;8.388;2023-04-01T22:49:23;11.90;99.90
6865;DHT22;3471;49.678;8.388;2023-04-01T22:52:27;11.90;99.90
6865;DHT22;3471;49.678;8.388;2023-04-01T22:55:00;11.90;99.90
6865;DHT22;3471;49.678;8.388;2023-04-01T22:57:42;11.80;99.90
6865;DHT22;3471;49.678;8.388;2023-04-01T23:00:21;11.90;99.90
6865;DHT22;3471;49.678;8.388;2023-04-01T23:05:46;11.80;99.90
6865;DHT22;3471;49.678;8.388;2023-04-01T23:11:03;11.80;99.90
6865;DHT22;3471;49.678;8.388;2023-04-01T23:13:43;11.80;99.90
6865;DHT22;3471;49.678;8.388;2023-04-01T23:16:11;11.80;99.90
6865;DHT22;3471;49.678;8.388;2023-04-01T23:21:40;11.70;99.90
6865;DHT22;3471;49.678;8.388;2023-04-01T23:24:35;11.70;99.90
6865;DHT22;3471;49.678;8.388;2023-04-01T23:27:11;11.70;99.90
6865;DHT22;3471;49.678;8.388;2023-04-01T23:29:38;11.70;99.90
6865;DHT22;3471;49.678;8.388;2023-04-01T23:32:11;11.60;99.90
6865;DHT22;3471;49.678;8.388;2023-04-01T23:34:38;11.60;99.90
6865;DHT22;3471;49.678;8.388;2023-04-01T23:37:12;11.50;99.90
6865;DHT22;3471;49.678;8.388;2023-04-01T23:39:40;11.50;99.90
6865;DHT22;3471;49.678;8.388;2023-04-01T23:42:28;11.50;99.90
6865;DHT22;3471;49.678;8.388;2023-04-01T23:45:04;11.50;99.90
6865;DHT22;3471;49.678;8.388;2023-04-01T23:47:36;11.50;99.90
6865;DHT22;3471;49.678;8.388;2023-04-01T23:50:22;11.40;99.90
6865;DHT22;3471;49.678;8.388;2023-04-01T23:52:53;11.40;99.90
6865;DHT22;3471;49.678;8.388;2023-04-01T23:55:27;11.40;99.90
